createdAt,value
2023-04-22T00:01:04.583Z,5.90
2023-04-22T00:03:33.186Z,5.78
2023-04-22T00:06:00.714Z,5.91
2023-04-22T00:08:28.518Z,5.41
2023-04-22T00:10:57.001Z,5.29
2023-04-22T00:13:24.434Z,5.21
2023-04-22T00:15:52.804Z,5.24
2023-04-22T00:18:20.418Z,5.42
2023-04-22T00:20:48.026Z,5.61
2023-04-22T00:23:15.231Z,5.64
2023-04-22T00:25:42.754Z,5.75
2023-04-22T00:28:10.224Z,5.91
2023-04-22T00:30:37.648Z,5.48
2023-04-22T00:33:05.181Z,5.68
2023-04-22T00:35:32.644Z,5.15
2023-04-22T00:38:00.015Z,4.98
2023-04-22T00:40:28.625Z,4.88
2023-04-22T00:42:58.500Z,4.81
2023-04-22T00:45:27.311Z,4.90
2023-04-22T00:47:54.984Z,5.10
2023-04-22T00:50:23.931Z,5.07
2023-04-22T00:52:51.546Z,5.00
2023-04-22T00:55:19.101Z,4.92
2023-04-22T00:57:54.234Z,4.74
2023-04-22T01:00:27.596Z,4.61
2023-04-22T01:02:56.551Z,4.61
2023-04-22T01:05:26.049Z,4.66
2023-04-22T01:07:53.565Z,4.67
2023-04-22T01:10:23.459Z,4.27
2023-04-22T01:12:51.221Z,4.44
2023-04-22T01:15:24.925Z,4.66
2023-04-22T01:17:54.030Z,4.67
2023-04-22T01:20:23.328Z,4.60
2023-04-22T01:22:54.013Z,4.47
2023-04-22T01:25:21.781Z,4.49
2023-04-22T01:27:49.667Z,4.12
2023-04-22T01:30:18.189Z,4.26
2023-04-22T01:32:45.928Z,4.43
2023-04-22T01:35:13.708Z,4.37
2023-04-22T01:37:42.031Z,4.38
2023-04-22T01:40:12.907Z,4.41
2023-04-22T01:42:40.506Z,4.02
2023-04-22T01:45:08.340Z,4.02
2023-04-22T01:47:36.009Z,4.31
2023-04-22T01:50:07.872Z,4.15
2023-04-22T01:52:37.419Z,4.05
2023-04-22T01:55:05.231Z,3.88
2023-04-22T01:57:32.404Z,3.57
2023-04-22T02:00:00.177Z,3.47
2023-04-22T02:02:27.997Z,3.78
2023-04-22T02:04:55.388Z,4.10
2023-04-22T02:07:30.876Z,3.93
2023-04-22T02:09:58.346Z,3.66
2023-04-22T02:12:27.902Z,3.63
2023-04-22T02:14:57.590Z,3.97
2023-04-22T02:17:32.142Z,3.99
2023-04-22T02:20:07.188Z,3.88
2023-04-22T02:22:36.095Z,3.82
2023-04-22T02:25:03.779Z,3.73
2023-04-22T02:27:31.212Z,3.88
2023-04-22T02:29:58.588Z,3.94
2023-04-22T02:32:27.033Z,3.61
2023-04-22T02:34:54.460Z,3.50
2023-04-22T02:37:23.176Z,3.70
2023-04-22T02:39:56.584Z,3.85
2023-04-22T02:42:26.067Z,3.59
2023-04-22T02:44:59.740Z,3.23
2023-04-22T02:47:27.210Z,3.39
2023-04-22T02:49:54.654Z,3.37
2023-04-22T02:52:22.133Z,3.44
2023-04-22T02:54:49.617Z,3.48
2023-04-22T02:57:17.004Z,3.49
2023-04-22T02:59:45.543Z,3.45
2023-04-22T03:02:13.059Z,3.34
2023-04-22T03:04:40.461Z,3.44
2023-04-22T03:07:07.937Z,3.46
2023-04-22T03:09:35.730Z,3.47
2023-04-22T03:12:03.390Z,3.42
2023-04-22T03:14:30.819Z,3.40
2023-04-22T03:16:58.337Z,3.40
2023-04-22T03:19:25.879Z,3.43
2023-04-22T03:21:54.182Z,3.44
2023-04-22T03:24:21.873Z,3.55
2023-04-22T03:26:51.057Z,3.31
2023-04-22T03:29:18.596Z,2.80
2023-04-22T03:31:48.110Z,2.71
2023-04-22T03:34:15.307Z,2.71
2023-04-22T03:36:42.487Z,3.00
2023-04-22T03:39:10.001Z,3.14
2023-04-22T03:41:37.299Z,2.98
2023-04-22T03:44:04.408Z,2.99
2023-04-22T03:46:33.389Z,3.07
2023-04-22T03:49:00.673Z,2.97
2023-04-22T03:51:29.353Z,3.00
2023-04-22T03:54:10.062Z,3.00
2023-04-22T03:56:38.562Z,2.84
2023-04-22T03:59:06.338Z,2.95
2023-04-22T04:01:33.861Z,3.08
2023-04-22T04:04:01.797Z,2.88
2023-04-22T04:06:30.022Z,2.76
2023-04-22T04:08:57.553Z,2.70
2023-04-22T04:11:25.234Z,2.87
2023-04-22T04:13:52.748Z,2.92
2023-04-22T04:16:21.278Z,2.72
2023-04-22T04:18:51.876Z,2.55
2023-04-22T04:21:19.202Z,2.62
2023-04-22T04:23:48.541Z,2.91
2023-04-22T04:26:15.634Z,2.72
2023-04-22T04:28:44.184Z,2.70
2023-04-22T04:31:11.287Z,2.77
2023-04-22T04:33:41.056Z,2.79
2023-04-22T04:36:10.587Z,2.71
2023-04-22T04:38:39.415Z,2.68
2023-04-22T04:41:08.937Z,2.64
2023-04-22T04:43:36.144Z,2.94
2023-04-22T04:46:04.704Z,3.05
2023-04-22T04:48:36.476Z,3.19
2023-04-22T04:51:04.521Z,3.40
2023-04-22T04:53:32.299Z,3.38
2023-04-22T04:55:59.565Z,3.50
2023-04-22T04:58:27.208Z,3.68
2023-04-22T05:00:54.632Z,3.85
2023-04-22T05:03:22.286Z,3.81
2023-04-22T05:05:49.512Z,3.90
2023-04-22T05:08:16.908Z,4.21
2023-04-22T05:10:45.433Z,4.47
2023-04-22T05:13:12.597Z,4.68
2023-04-22T05:15:41.402Z,4.62
2023-04-22T05:18:08.928Z,4.67
2023-04-22T05:20:38.209Z,4.79
2023-04-22T05:23:05.906Z,5.04
2023-04-22T05:25:34.192Z,5.35
2023-04-22T05:28:01.213Z,5.37
2023-04-22T05:30:30.757Z,5.47
2023-04-22T05:32:58.233Z,5.56
2023-04-22T05:35:25.588Z,5.64
2023-04-22T05:37:53.137Z,5.79
2023-04-22T05:40:22.535Z,5.91
2023-04-22T05:42:51.140Z,6.04
2023-04-22T05:45:18.600Z,6.20
2023-04-22T05:47:46.053Z,6.42
2023-04-22T05:50:14.254Z,6.61
2023-04-22T05:52:41.837Z,6.84
2023-04-22T05:55:10.308Z,7.06
2023-04-22T05:57:37.847Z,7.27
2023-04-22T06:00:05.730Z,7.45
2023-04-22T06:02:33.386Z,7.64
2023-04-22T06:05:07.226Z,7.83
2023-04-22T06:07:34.746Z,8.04
2023-04-22T06:10:05.330Z,8.25
2023-04-22T06:12:34.918Z,8.41
2023-04-22T06:15:02.475Z,8.70
2023-04-22T06:17:36.253Z,8.86
2023-04-22T06:20:03.794Z,9.03
2023-04-22T06:22:30.999Z,9.22
2023-04-22T06:24:58.544Z,9.35
2023-04-22T06:27:26.885Z,9.57
2023-04-22T06:30:00.228Z,9.71
2023-04-22T06:32:29.509Z,9.90
2023-04-22T06:34:57.024Z,10.12
2023-04-22T06:37:24.630Z,10.32
2023-04-22T06:39:54.125Z,10.48
2023-04-22T06:42:21.438Z,10.57
2023-04-22T06:44:49.074Z,10.74
2023-04-22T06:47:42.539Z,10.87
2023-04-22T06:50:10.873Z,10.96
2023-04-22T06:52:38.503Z,11.14
2023-04-22T06:55:07.356Z,11.32
2023-04-22T06:57:34.964Z,11.41
2023-04-22T07:00:06.589Z,11.51
2023-04-22T07:02:33.897Z,11.71
2023-04-22T07:05:01.525Z,11.85
2023-04-22T07:07:28.907Z,11.97
2023-04-22T07:09:56.359Z,12.07
2023-04-22T07:12:26.150Z,12.18
2023-04-22T07:14:53.835Z,12.24
2023-04-22T07:17:22.916Z,12.43
2023-04-22T07:19:51.236Z,12.57
2023-04-22T07:22:19.810Z,12.67
2023-04-22T07:24:55.360Z,12.86
2023-04-22T07:27:22.833Z,13.03
2023-04-22T07:29:50.232Z,13.02
2023-04-22T07:32:18.909Z,13.16
2023-04-22T07:34:46.349Z,13.31
2023-04-22T07:37:13.721Z,13.46
2023-04-22T07:39:43.222Z,13.61
2023-04-22T07:42:10.692Z,13.77
2023-04-22T07:44:39.411Z,14.02
2023-04-22T07:47:09.253Z,14.23
2023-04-22T07:49:38.097Z,14.42
2023-04-22T07:52:05.753Z,14.65
2023-04-22T07:54:33.960Z,14.81
2023-04-22T07:57:01.957Z,15.07
2023-04-22T07:59:29.555Z,15.20
2023-04-22T08:01:57.064Z,15.20
2023-04-22T08:04:24.796Z,15.47
2023-04-22T08:06:52.450Z,15.70
2023-04-22T08:09:19.946Z,15.81
2023-04-22T08:11:48.316Z,15.93
2023-04-22T08:14:15.710Z,16.18
2023-04-22T08:16:43.176Z,16.33
2023-04-22T08:19:11.162Z,16.55
2023-04-22T08:21:50.407Z,16.67
2023-04-22T08:24:18.987Z,16.74
2023-04-22T08:26:46.527Z,16.93
2023-04-22T08:29:14.873Z,17.11
2023-04-22T08:31:42.595Z,17.25
2023-04-22T08:34:10.166Z,17.41
2023-04-22T08:36:37.688Z,17.64
2023-04-22T08:39:05.270Z,17.80
2023-04-22T08:41:36.064Z,17.96
2023-04-22T08:44:03.887Z,18.13
2023-04-22T08:46:32.584Z,18.33
2023-04-22T08:49:04.286Z,18.45
2023-04-22T08:51:34.220Z,18.55
2023-04-22T08:54:01.772Z,18.62
2023-04-22T08:56:30.697Z,18.67
2023-04-22T08:59:01.062Z,18.77
2023-04-22T09:01:30.376Z,18.86
2023-04-22T09:04:02.377Z,19.09
2023-04-22T09:06:32.733Z,19.26
2023-04-22T09:09:01.623Z,18.89
2023-04-22T09:11:29.589Z,18.39
2023-04-22T09:13:57.703Z,17.99
2023-04-22T09:16:26.255Z,17.95
2023-04-22T09:18:54.635Z,17.99
2023-04-22T09:21:26.202Z,18.20
2023-04-22T09:23:55.238Z,18.55
2023-04-22T09:26:26.637Z,18.91
2023-04-22T09:28:56.767Z,19.28
2023-04-22T09:31:25.169Z,19.45
2023-04-22T09:33:56.109Z,19.59
2023-04-22T09:36:27.598Z,19.80
2023-04-22T09:39:07.596Z,20.08
2023-04-22T09:41:40.121Z,20.37
2023-04-22T09:44:16.610Z,19.16
2023-04-22T09:46:44.839Z,19.24
2023-04-22T09:49:17.156Z,19.64
2023-04-22T09:51:44.332Z,20.11
2023-04-22T09:54:12.351Z,20.54
2023-04-22T09:56:43.296Z,20.91
2023-04-22T09:59:11.416Z,21.23
2023-04-22T10:01:43.276Z,21.54
2023-04-22T10:04:15.715Z,21.66
2023-04-22T10:06:43.807Z,21.72
2023-04-22T10:09:12.608Z,21.60
2023-04-22T10:11:41.772Z,21.09
2023-04-22T10:14:14.514Z,21.33
2023-04-22T10:16:46.869Z,20.54
2023-04-22T10:19:22.665Z,20.37
2023-04-22T10:21:55.020Z,20.45
2023-04-22T10:24:26.998Z,20.73
2023-04-22T10:27:08.852Z,20.80
2023-04-22T10:29:43.687Z,20.88
2023-04-22T10:32:11.954Z,20.65
2023-04-22T10:34:42.021Z,20.37
2023-04-22T10:37:12.202Z,20.57
2023-04-22T10:39:41.929Z,21.22
2023-04-22T10:42:13.153Z,22.05
2023-04-22T10:45:03.140Z,22.97
2023-04-22T10:47:33.195Z,23.14
2023-04-22T10:50:19.654Z,23.48
2023-04-22T10:52:53.063Z,22.96
2023-04-22T10:55:21.628Z,22.54
2023-04-22T10:57:51.276Z,23.01
2023-04-22T11:00:41.779Z,23.82
2023-04-22T11:03:27.066Z,23.82
2023-04-22T11:06:22.568Z,24.45
2023-04-22T11:08:51.348Z,25.03
2023-04-22T11:11:19.820Z,25.45
2023-04-22T11:13:52.647Z,25.57
2023-04-22T11:16:22.760Z,25.21
2023-04-22T11:18:50.888Z,25.49
2023-04-22T11:21:18.866Z,25.69
2023-04-22T11:23:53.351Z,25.25
2023-04-22T11:26:34.490Z,25.89
2023-04-22T11:29:01.760Z,26.22
2023-04-22T11:31:29.257Z,26.45
2023-04-22T11:34:00.769Z,26.44
2023-04-22T11:36:29.214Z,26.77
2023-04-22T11:38:57.908Z,26.96
2023-04-22T11:41:25.009Z,26.78
2023-04-22T11:43:52.664Z,26.58
2023-04-22T11:46:30.791Z,27.09
2023-04-22T11:49:16.494Z,27.57
2023-04-22T11:51:57.131Z,27.34
2023-04-22T11:54:38.144Z,27.23
2023-04-22T11:57:09.744Z,27.08
2023-04-22T11:59:37.962Z,27.29
2023-04-22T12:02:07.101Z,27.99
2023-04-22T12:04:41.784Z,28.51
2023-04-22T12:07:09.303Z,27.45
2023-04-22T12:09:36.965Z,27.77
2023-04-22T12:12:11.658Z,28.14
2023-04-22T12:14:38.996Z,27.61
2023-04-22T12:17:12.594Z,27.82
2023-04-22T12:19:40.192Z,27.59
2023-04-22T12:22:08.926Z,27.12
2023-04-22T12:24:36.558Z,27.20
2023-04-22T12:27:04.908Z,26.84
2023-04-22T12:29:34.218Z,26.35
2023-04-22T12:32:04.191Z,26.30
2023-04-22T12:34:33.426Z,26.85
2023-04-22T12:37:01.902Z,27.08
2023-04-22T12:39:29.499Z,27.78
2023-04-22T12:41:58.079Z,26.48
2023-04-22T12:44:25.365Z,25.38
2023-04-22T12:46:53.001Z,25.17
2023-04-22T12:49:21.230Z,24.03
2023-04-22T12:51:48.194Z,25.08
2023-04-22T12:54:15.818Z,25.70
2023-04-22T12:56:45.517Z,26.40
2023-04-22T12:59:14.810Z,26.80
2023-04-22T13:01:49.472Z,26.75
2023-04-22T13:04:19.728Z,25.85
2023-04-22T13:06:47.083Z,25.54
2023-04-22T13:09:16.869Z,24.82
2023-04-22T13:11:44.377Z,24.59
2023-04-22T13:14:11.777Z,25.01
2023-04-22T13:16:39.374Z,25.15
2023-04-22T13:19:06.857Z,25.15
2023-04-22T13:21:34.204Z,25.58
2023-04-22T13:24:01.569Z,25.92
2023-04-22T13:26:30.580Z,26.60
2023-04-22T13:29:00.826Z,26.53
2023-04-22T13:31:29.628Z,25.92
2023-04-22T13:33:58.114Z,25.03
2023-04-22T13:36:26.555Z,24.75
2023-04-22T13:38:55.560Z,24.03
2023-04-22T13:41:23.214Z,24.11
2023-04-22T13:43:54.529Z,23.84
2023-04-22T13:46:23.280Z,24.90
2023-04-22T13:48:51.564Z,26.62
2023-04-22T13:51:19.997Z,28.01
2023-04-22T13:53:47.492Z,28.45
2023-04-22T13:56:15.495Z,27.25
2023-04-22T13:58:43.685Z,26.02
2023-04-22T14:01:11.090Z,24.68
2023-04-22T14:03:38.493Z,24.77
2023-04-22T14:06:05.888Z,24.51
2023-04-22T14:08:33.320Z,25.51
2023-04-22T14:11:00.853Z,25.57
2023-04-22T14:13:28.173Z,24.93
2023-04-22T14:15:55.647Z,24.77
2023-04-22T14:18:24.427Z,25.97
2023-04-22T14:20:53.610Z,27.06
2023-04-22T14:23:21.230Z,27.93
2023-04-22T14:25:49.286Z,27.26
2023-04-22T14:28:17.270Z,25.44
2023-04-22T14:30:45.747Z,25.84
2023-04-22T14:33:14.312Z,26.09
2023-04-22T14:35:43.804Z,25.05
2023-04-22T14:38:12.745Z,25.79
2023-04-22T14:40:40.141Z,25.41
2023-04-22T14:43:08.486Z,25.34
2023-04-22T14:45:35.996Z,25.44
2023-04-22T14:48:03.672Z,25.16
2023-04-22T14:50:31.171Z,25.32
2023-04-22T14:52:58.582Z,25.86
2023-04-22T14:55:26.037Z,26.88
2023-04-22T14:57:59.543Z,27.80
2023-04-22T15:00:27.001Z,27.86
2023-04-22T15:02:55.942Z,27.50
2023-04-22T15:05:23.905Z,28.28
2023-04-22T15:07:52.376Z,28.19
2023-04-22T15:10:20.533Z,27.50
2023-04-22T15:13:00.637Z,26.78
2023-04-22T15:15:36.976Z,26.51
2023-04-22T15:18:05.922Z,26.15
2023-04-22T15:20:33.246Z,24.86
2023-04-22T15:23:01.956Z,24.71
2023-04-22T15:25:29.419Z,24.11
2023-04-22T15:27:57.309Z,23.80
2023-04-22T15:30:24.974Z,23.78
2023-04-22T15:32:53.288Z,23.38
2023-04-22T15:35:21.604Z,24.27
2023-04-22T15:37:49.196Z,25.42
2023-04-22T15:40:19.042Z,25.49
2023-04-22T15:42:47.709Z,24.36
2023-04-22T15:45:14.842Z,23.85
2023-04-22T15:47:44.188Z,23.99
2023-04-22T15:50:11.771Z,24.71
2023-04-22T15:52:41.280Z,25.05
2023-04-22T15:55:09.602Z,24.81
2023-04-22T15:57:36.708Z,25.63
2023-04-22T16:00:11.698Z,25.90
2023-04-22T16:02:41.084Z,25.18
2023-04-22T16:05:08.753Z,25.56
2023-04-22T16:07:37.274Z,25.86
2023-04-22T16:10:05.469Z,26.10
2023-04-22T16:12:34.356Z,26.47
2023-04-22T16:15:02.499Z,26.76
2023-04-22T16:17:30.501Z,26.81
2023-04-22T16:19:58.279Z,26.90
2023-04-22T16:22:25.429Z,26.12
2023-04-22T16:24:52.899Z,25.18
2023-04-22T16:27:20.349Z,25.27
2023-04-22T16:29:47.792Z,25.47
2023-04-22T16:32:15.451Z,25.60
2023-04-22T16:34:42.649Z,25.46
2023-04-22T16:37:09.718Z,25.30
2023-04-22T16:39:37.192Z,24.36
2023-04-22T16:42:04.356Z,24.03
2023-04-22T16:44:33.478Z,23.76
2023-04-22T16:47:01.397Z,24.02
2023-04-22T16:49:29.062Z,24.22
2023-04-22T16:51:57.911Z,24.21
2023-04-22T16:54:25.828Z,24.20
2023-04-22T16:56:52.906Z,24.17
2023-04-22T16:59:22.541Z,24.07
2023-04-22T17:01:50.528Z,23.95
2023-04-22T17:04:18.618Z,23.88
2023-04-22T17:06:46.273Z,23.76
2023-04-22T17:09:13.847Z,23.60
2023-04-22T17:11:41.322Z,23.49
2023-04-22T17:14:33.668Z,23.37
2023-04-22T17:17:00.791Z,23.24
2023-04-22T17:19:28.282Z,23.05
2023-04-22T17:21:56.884Z,22.96
2023-04-22T17:24:26.409Z,22.83
2023-04-22T17:26:53.686Z,22.71
2023-04-22T17:29:23.608Z,22.54
2023-04-22T17:31:51.281Z,22.41
2023-04-22T17:34:24.554Z,22.19
2023-04-22T17:36:53.916Z,21.99
2023-04-22T17:39:21.318Z,21.74
2023-04-22T17:41:48.764Z,21.44
2023-04-22T17:44:16.206Z,21.26
2023-04-22T17:46:44.095Z,20.99
2023-04-22T17:49:12.611Z,20.78
2023-04-22T17:51:42.360Z,19.74
2023-04-22T17:54:09.578Z,19.82
2023-04-22T17:56:37.013Z,19.65
2023-04-22T17:59:04.530Z,19.51
2023-04-22T18:01:32.080Z,19.37
2023-04-22T18:03:59.591Z,19.26
2023-04-22T18:06:27.821Z,19.16
2023-04-22T18:08:55.429Z,18.83
2023-04-22T18:11:23.245Z,18.79
2023-04-22T18:13:50.556Z,18.61
2023-04-22T18:16:18.848Z,18.34
2023-04-22T18:18:47.257Z,17.09
2023-04-22T18:21:14.753Z,16.90
2023-04-22T18:23:42.771Z,16.83
2023-04-22T18:26:11.552Z,17.00
2023-04-22T18:28:41.440Z,17.05
2023-04-22T18:31:08.737Z,17.11
2023-04-22T18:33:36.869Z,17.16
2023-04-22T18:36:04.231Z,16.95
2023-04-22T18:38:31.536Z,16.82
2023-04-22T18:40:59.464Z,16.72
2023-04-22T18:43:27.018Z,16.48
2023-04-22T18:45:54.529Z,16.38
2023-04-22T18:48:22.924Z,16.27
2023-04-22T18:50:50.920Z,16.12
2023-04-22T18:53:20.520Z,15.93
2023-04-22T18:55:48.895Z,15.83
2023-04-22T18:58:16.645Z,15.63
2023-04-22T19:00:45.167Z,15.48
2023-04-22T19:03:14.371Z,15.45
2023-04-22T19:05:41.713Z,15.31
2023-04-22T19:08:09.526Z,15.07
2023-04-22T19:10:37.421Z,14.95
2023-04-22T19:13:05.016Z,14.81
2023-04-22T19:15:32.640Z,14.70
2023-04-22T19:18:00.943Z,14.62
2023-04-22T19:20:31.262Z,14.39
2023-04-22T19:22:58.920Z,14.34
2023-04-22T19:25:27.243Z,14.31
2023-04-22T19:27:54.820Z,14.21
2023-04-22T19:30:26.656Z,14.11
2023-04-22T19:32:56.770Z,13.82
2023-04-22T19:35:27.472Z,13.67
2023-04-22T19:37:55.081Z,13.68
2023-04-22T19:40:22.672Z,13.67
2023-04-22T19:42:51.767Z,13.60
2023-04-22T19:45:26.019Z,13.42
2023-04-22T19:47:54.874Z,13.32
2023-04-22T19:50:22.526Z,13.36
2023-04-22T19:52:51.418Z,13.22
2023-04-22T19:55:20.038Z,12.99
2023-04-22T19:57:48.204Z,13.05
2023-04-22T20:00:15.816Z,13.10
2023-04-22T20:02:43.757Z,13.10
2023-04-22T20:05:12.316Z,12.97
2023-04-22T20:07:41.584Z,12.91
2023-04-22T20:10:10.601Z,12.63
2023-04-22T20:12:38.985Z,12.47
2023-04-22T20:15:34.076Z,12.09
2023-04-22T20:18:01.640Z,11.85
2023-04-22T20:20:29.574Z,11.82
2023-04-22T20:23:04.684Z,11.93
2023-04-22T20:25:32.139Z,11.84
2023-04-22T20:28:00.710Z,11.76
2023-04-22T20:30:28.113Z,11.57
2023-04-22T20:32:56.572Z,11.44
2023-04-22T20:35:25.019Z,11.32
2023-04-22T20:37:56.584Z,11.23
2023-04-22T20:40:24.929Z,11.18
2023-04-22T20:42:52.486Z,11.02
2023-04-22T20:45:20.990Z,10.64
2023-04-22T20:47:48.799Z,10.44
2023-04-22T20:50:16.511Z,10.62
2023-04-22T20:52:44.612Z,10.67
2023-04-22T20:55:12.902Z,10.59
2023-04-22T20:57:40.334Z,10.57
2023-04-22T21:00:10.511Z,10.54
2023-04-22T21:02:40.416Z,10.64
2023-04-22T21:05:09.566Z,10.49
2023-04-22T21:07:39.774Z,10.57
2023-04-22T21:10:08.437Z,10.39
2023-04-22T21:12:38.402Z,10.06
2023-04-22T21:15:06.652Z,10.21
2023-04-22T21:17:36.794Z,10.04
2023-04-22T21:20:09.530Z,10.03
2023-04-22T21:22:38.345Z,10.03
2023-04-22T21:25:06.298Z,9.74
2023-04-22T21:27:33.664Z,9.68
2023-04-22T21:30:01.748Z,9.48
2023-04-22T21:32:29.936Z,9.26
2023-04-22T21:34:57.423Z,9.25
2023-04-22T21:37:24.882Z,9.18
2023-04-22T21:39:52.265Z,9.45
2023-04-22T21:42:19.787Z,9.54
2023-04-22T21:44:50.006Z,9.69
2023-04-22T21:47:19.305Z,9.75
2023-04-22T21:49:47.484Z,9.85
2023-04-22T21:52:17.331Z,9.82
2023-04-22T21:54:44.669Z,9.89
2023-04-22T21:57:12.761Z,9.94
2023-04-22T21:59:40.125Z,9.96
2023-04-22T22:02:09.428Z,9.84
2023-04-22T22:04:53.522Z,9.89
2023-04-22T22:07:22.512Z,9.86
2023-04-22T22:09:50.042Z,9.88
2023-04-22T22:12:23.843Z,9.90
2023-04-22T22:14:53.107Z,9.85
2023-04-22T22:17:26.767Z,9.87
2023-04-22T22:19:54.449Z,9.91
2023-04-22T22:22:22.565Z,9.73
2023-04-22T22:24:51.459Z,9.72
2023-04-22T22:27:19.650Z,9.78
2023-04-22T22:29:46.957Z,9.85
2023-04-22T22:32:14.776Z,9.82
2023-04-22T22:34:42.439Z,9.75
2023-04-22T22:37:10.147Z,9.77
2023-04-22T22:39:37.555Z,9.02
2023-04-22T22:42:04.901Z,8.81
2023-04-22T22:44:32.250Z,9.08
2023-04-22T22:46:59.810Z,9.20
2023-04-22T22:49:33.937Z,9.29
2023-04-22T22:52:07.691Z,9.47
2023-04-22T22:54:40.641Z,9.49
2023-04-22T22:57:14.195Z,9.53
2023-04-22T22:59:41.610Z,9.46
2023-04-22T23:02:09.180Z,9.50
2023-04-22T23:04:37.704Z,9.52
2023-04-22T23:07:07.126Z,9.54
2023-04-22T23:09:34.613Z,9.54
2023-04-22T23:12:02.965Z,8.61
2023-04-22T23:14:33.564Z,8.72
2023-04-22T23:17:02.354Z,8.64
2023-04-22T23:19:31.812Z,8.89
2023-04-22T23:21:59.340Z,9.04
2023-04-22T23:24:27.100Z,9.16
2023-04-22T23:26:54.653Z,9.22
2023-04-22T23:29:22.658Z,9.29
2023-04-22T23:32:05.298Z,9.29
2023-04-22T23:34:35.314Z,9.33
2023-04-22T23:37:06.382Z,9.38
2023-04-22T23:39:33.835Z,9.43
2023-04-22T23:42:01.852Z,9.60
2023-04-22T23:44:31.227Z,9.68
2023-04-22T23:46:59.724Z,9.90
2023-04-22T23:49:27.222Z,9.92
2023-04-22T23:51:54.790Z,10.04
2023-04-22T23:54:23.255Z,9.93
2023-04-22T23:56:53.343Z,10.06
2023-04-22T23:59:20.750Z,10.12
